Terminal Aerodrome Forecast
Issued by NWS St Louis, MO

Home | Current Version | Previous Version | Text Only | Print | Product List | Glossary On
Versions: 1 2 3 4 5 6 7 8 9 10 11 12 13 14 15 16 17 18 19 20 21 22 23 24 25 26 27 28 29 30 31 32
959
FTUS43 KLSX 010530
TAFSTL
TAF
KSTL 010530Z 0106/0212 VRB04KT P6SM VCTS SCT040CB BKN120
     FM010800 VRB04KT P6SM SCT050 BKN250
      TEMPO 0109/0113 4SM BR
     FM011500 29007KT P6SM BKN030
     FM011800 29010KT P6SM BKN040
     FM020100 32008KT P6SM SCT050 BKN120
     FM020900 32007KT P6SM BKN015=

USA.gov is the U.S. government's official web portal to all federal, state and local government web resources and services.